createdAt,value
2023-02-06T00:01:56.207Z,100.00
2023-02-06T00:04:23.761Z,100.00
2023-02-06T00:06:51.269Z,100.00
2023-02-06T00:09:20.745Z,100.00
2023-02-06T00:11:49.439Z,100.00
2023-02-06T00:14:19.690Z,100.00
2023-02-06T00:16:47.263Z,100.00
2023-02-06T00:19:14.803Z,100.00
2023-02-06T00:21:42.797Z,100.00
2023-02-06T00:24:10.668Z,100.00
2023-02-06T00:26:39.628Z,100.00
2023-02-06T00:29:07.569Z,100.00
2023-02-06T00:31:35.225Z,100.00
2023-02-06T00:34:04.038Z,100.00
2023-02-06T00:36:31.541Z,100.00
2023-02-06T00:38:59.167Z,100.00
2023-02-06T00:41:26.825Z,100.00
2023-02-06T00:43:55.740Z,100.00
2023-02-06T00:46:23.431Z,100.00
2023-02-06T00:48:51.016Z,100.00
2023-02-06T00:51:18.587Z,99.86
2023-02-06T00:53:46.376Z,100.00
2023-02-06T00:56:14.177Z,100.00
2023-02-06T00:58:41.748Z,100.00
2023-02-06T01:01:10.878Z,99.37
2023-02-06T01:03:38.498Z,99.12
2023-02-06T01:06:06.864Z,98.91
2023-02-06T01:08:34.660Z,99.29
2023-02-06T01:11:02.378Z,98.59
2023-02-06T01:13:29.964Z,98.97
2023-02-06T01:15:57.681Z,98.36
2023-02-06T01:18:26.696Z,99.52
2023-02-06T01:20:54.222Z,99.63
2023-02-06T01:23:21.865Z,99.18
2023-02-06T01:25:49.513Z,98.19
2023-02-06T01:28:19.208Z,99.25
2023-02-06T01:30:46.736Z,98.43
2023-02-06T01:33:14.295Z,98.27
2023-02-06T01:35:43.237Z,98.57
2023-02-06T01:38:10.771Z,99.29
2023-02-06T01:40:38.346Z,99.43
2023-02-06T01:43:16.723Z,99.58
2023-02-06T01:45:46.736Z,99.34
2023-02-06T01:48:18.341Z,97.82
2023-02-06T01:50:51.737Z,96.59
2023-02-06T01:53:21.667Z,97.01
2023-02-06T01:55:51.900Z,97.47
2023-02-06T01:58:25.190Z,97.70
2023-02-06T02:00:53.201Z,98.20
2023-02-06T02:03:20.882Z,97.53
2023-02-06T02:05:51.692Z,97.00
2023-02-06T02:08:23.460Z,96.34
2023-02-06T02:10:50.994Z,95.68
2023-02-06T02:13:18.872Z,96.06
2023-02-06T02:15:58.750Z,95.86
2023-02-06T02:18:41.421Z,95.44
2023-02-06T02:21:32.867Z,94.01
2023-02-06T02:24:09.954Z,94.00
2023-02-06T02:27:27.058Z,93.87
2023-02-06T02:30:31.317Z,93.79
2023-02-06T02:33:43.749Z,94.56
2023-02-06T02:36:19.670Z,93.79
2023-02-06T02:39:00.462Z,93.41
2023-02-06T02:41:35.635Z,93.58
2023-02-06T02:44:09.498Z,93.98
2023-02-06T02:46:40.692Z,94.43
2023-02-06T02:49:13.338Z,94.92
2023-02-06T02:51:44.351Z,95.12
2023-02-06T02:54:12.014Z,94.51
2023-02-06T02:56:40.170Z,94.91
2023-02-06T02:59:13.384Z,96.71
2023-02-06T03:01:46.699Z,96.38
2023-02-06T03:04:20.534Z,97.15
2023-02-06T03:07:09.648Z,98.19
2023-02-06T03:09:47.641Z,97.76
2023-02-06T03:12:25.188Z,97.75
2023-02-06T03:14:56.660Z,98.50
2023-02-06T03:17:32.546Z,98.52
2023-02-06T03:20:03.625Z,98.62
2023-02-06T03:22:35.568Z,99.39
2023-02-06T03:25:09.192Z,97.13
2023-02-06T03:27:40.419Z,97.77
2023-02-06T03:30:10.506Z,97.93
2023-02-06T03:32:43.137Z,98.84
2023-02-06T03:35:14.452Z,99.36
2023-02-06T03:37:44.060Z,99.80
2023-02-06T03:40:13.253Z,100.00
2023-02-06T03:42:46.516Z,99.87
2023-02-06T03:45:19.041Z,99.26
2023-02-06T03:47:48.847Z,99.30
2023-02-06T03:50:18.313Z,98.02
2023-02-06T03:52:51.909Z,97.23
2023-02-06T03:55:22.844Z,96.70
2023-02-06T03:57:53.663Z,96.68
2023-02-06T04:00:21.802Z,97.18
2023-02-06T04:02:51.942Z,97.46
2023-02-06T04:05:20.524Z,96.95
2023-02-06T04:07:49.682Z,97.90
2023-02-06T04:10:17.293Z,97.21
2023-02-06T04:12:44.963Z,96.84
2023-02-06T04:15:12.643Z,97.41
2023-02-06T04:17:57.655Z,97.10
2023-02-06T04:20:26.907Z,97.14
2023-02-06T04:22:55.952Z,96.90
2023-02-06T04:25:23.707Z,96.99
2023-02-06T04:27:51.656Z,95.30
2023-02-06T04:30:19.567Z,97.35
2023-02-06T04:32:47.294Z,97.42
2023-02-06T04:35:15.056Z,96.42
2023-02-06T04:37:42.748Z,95.44
2023-02-06T04:40:13.228Z,95.33
2023-02-06T04:42:40.846Z,95.77
2023-02-06T04:45:09.490Z,95.49
2023-02-06T04:47:37.105Z,95.59
2023-02-06T04:50:04.946Z,95.48
2023-02-06T04:52:32.555Z,95.77
2023-02-06T04:55:00.168Z,97.32
2023-02-06T04:57:29.209Z,96.81
2023-02-06T04:59:56.933Z,96.46
2023-02-06T05:02:24.577Z,96.00
2023-02-06T05:04:52.260Z,96.53
2023-02-06T05:07:20.314Z,97.29
2023-02-06T05:09:47.863Z,97.61
2023-02-06T05:12:15.702Z,96.62
2023-02-06T05:14:44.702Z,96.57
2023-02-06T05:17:12.610Z,95.79
2023-02-06T05:19:40.264Z,96.67
2023-02-06T05:22:08.854Z,97.00
2023-02-06T05:24:37.097Z,95.28
2023-02-06T05:27:05.020Z,96.76
2023-02-06T05:29:39.791Z,96.90
2023-02-06T05:32:08.780Z,98.11
2023-02-06T05:34:36.412Z,98.26
2023-02-06T05:37:04.079Z,95.29
2023-02-06T05:39:31.876Z,94.13
2023-02-06T05:41:59.530Z,93.42
2023-02-06T05:44:27.349Z,95.98
2023-02-06T05:46:57.422Z,95.67
2023-02-06T05:49:26.346Z,97.92
2023-02-06T05:51:53.892Z,97.94
2023-02-06T05:54:21.489Z,99.02
2023-02-06T05:56:49.194Z,100.00
2023-02-06T05:59:17.062Z,100.00
2023-02-06T06:01:44.764Z,100.00
2023-02-06T06:04:12.841Z,100.00
2023-02-06T06:06:41.832Z,98.43
2023-02-06T06:09:09.446Z,97.76
2023-02-06T06:11:37.070Z,98.97
2023-02-06T06:14:04.847Z,100.00
2023-02-06T06:16:32.695Z,100.00
2023-02-06T06:19:01.739Z,100.00
2023-02-06T06:21:29.460Z,100.00
2023-02-06T06:23:58.434Z,100.00
2023-02-06T06:26:26.077Z,100.00
2023-02-06T06:28:53.968Z,100.00
2023-02-06T06:31:22.783Z,100.00
2023-02-06T06:33:50.792Z,100.00
2023-02-06T06:36:18.365Z,100.00
2023-02-06T06:38:47.266Z,100.00
2023-02-06T06:41:16.323Z,100.00
2023-02-06T06:43:44.029Z,100.00
2023-02-06T06:46:11.880Z,100.00
2023-02-06T06:48:40.817Z,100.00
2023-02-06T06:51:09.234Z,100.00
2023-02-06T06:53:39.859Z,100.00
2023-02-06T06:56:09.468Z,100.00
2023-02-06T06:58:39.138Z,100.00
2023-02-06T07:01:08.508Z,100.00
2023-02-06T07:03:36.564Z,100.00
2023-02-06T07:06:04.981Z,100.00
2023-02-06T07:08:32.818Z,100.00
2023-02-06T07:11:00.467Z,100.00
2023-02-06T07:13:28.133Z,100.00
2023-02-06T07:15:57.114Z,100.00
2023-02-06T07:18:24.715Z,100.00
2023-02-06T07:20:54.787Z,100.00
2023-02-06T07:23:22.392Z,100.00
2023-02-06T07:25:50.095Z,100.00
2023-02-06T07:28:18.143Z,100.00
2023-02-06T07:30:45.852Z,100.00
2023-02-06T07:33:14.747Z,100.00
2023-02-06T07:35:42.909Z,100.00
2023-02-06T07:38:10.605Z,100.00
2023-02-06T07:40:46.093Z,97.76
2023-02-06T07:43:14.197Z,96.83
2023-02-06T07:45:42.075Z,96.36
2023-02-06T07:48:09.795Z,96.89
2023-02-06T07:50:39.107Z,94.04
2023-02-06T07:53:07.731Z,93.00
2023-02-06T07:55:37.258Z,91.88
2023-02-06T07:58:05.334Z,92.14
2023-02-06T08:00:33.212Z,90.45
2023-02-06T08:03:03.201Z,88.52
2023-02-06T08:05:31.219Z,88.07
2023-02-06T08:08:00.598Z,88.54
2023-02-06T08:10:28.322Z,88.32
2023-02-06T08:12:56.142Z,89.03
2023-02-06T08:15:25.216Z,89.92
2023-02-06T08:17:52.927Z,88.10
2023-02-06T08:20:20.541Z,83.25
2023-02-06T08:22:48.351Z,77.95
2023-02-06T08:25:17.550Z,76.21
2023-02-06T08:27:45.144Z,74.42
2023-02-06T08:30:13.968Z,71.37
2023-02-06T08:32:41.527Z,71.13
2023-02-06T08:35:10.971Z,70.92
2023-02-06T08:37:38.585Z,72.71
2023-02-06T08:40:07.048Z,73.76
2023-02-06T08:42:44.602Z,74.63
2023-02-06T08:45:14.551Z,75.80
2023-02-06T08:47:42.091Z,76.33
2023-02-06T08:50:10.335Z,77.47
2023-02-06T08:52:37.980Z,79.10
2023-02-06T08:55:06.026Z,80.71
2023-02-06T08:57:33.652Z,81.50
2023-02-06T09:00:02.901Z,82.07
2023-02-06T09:02:30.443Z,83.00
2023-02-06T09:04:58.060Z,80.85
2023-02-06T09:07:25.866Z,80.63
2023-02-06T09:09:53.494Z,81.52
2023-02-06T09:12:21.705Z,79.56
2023-02-06T09:14:49.650Z,81.42
2023-02-06T09:17:18.760Z,80.79
2023-02-06T09:19:46.362Z,79.73
2023-02-06T09:22:13.938Z,80.42
2023-02-06T09:24:42.300Z,79.76
2023-02-06T09:27:11.371Z,79.29
2023-02-06T09:29:39.089Z,79.83
2023-02-06T09:32:06.870Z,78.63
2023-02-06T09:34:38.548Z,76.17
2023-02-06T09:37:11.177Z,75.07
2023-02-06T09:39:41.188Z,75.45
2023-02-06T09:42:16.296Z,74.83
2023-02-06T09:44:50.005Z,74.29
2023-02-06T09:47:24.797Z,73.68
2023-02-06T09:49:59.936Z,74.50
2023-02-06T09:52:50.878Z,73.75
2023-02-06T09:55:26.614Z,73.73
2023-02-06T09:58:01.347Z,75.01
2023-02-06T10:00:38.647Z,72.59
2023-02-06T10:03:31.396Z,73.45
2023-02-06T10:06:12.171Z,74.55
2023-02-06T10:08:43.105Z,73.18
2023-02-06T10:11:16.582Z,71.82
2023-02-06T10:13:50.101Z,72.28
2023-02-06T10:16:34.466Z,71.66
2023-02-06T10:19:05.907Z,71.05
2023-02-06T10:21:38.791Z,70.92
2023-02-06T10:24:11.425Z,70.07
2023-02-06T10:26:41.375Z,68.63
2023-02-06T10:29:16.858Z,68.54
2023-02-06T10:31:56.162Z,67.40
2023-02-06T10:34:47.218Z,67.32
2023-02-06T10:37:29.807Z,67.07
2023-02-06T10:40:16.708Z,67.23
2023-02-06T10:42:54.757Z,67.41
2023-02-06T10:45:37.308Z,68.65
2023-02-06T10:48:19.331Z,69.82
2023-02-06T10:50:51.610Z,68.99
2023-02-06T10:53:24.253Z,67.71
2023-02-06T10:55:56.153Z,67.43
2023-02-06T10:58:30.952Z,68.01
2023-02-06T11:01:01.559Z,67.37
2023-02-06T11:03:32.035Z,65.62
2023-02-06T11:06:02.639Z,65.48
2023-02-06T11:08:34.447Z,66.80
2023-02-06T11:11:21.298Z,66.66
2023-02-06T11:13:52.242Z,68.18
2023-02-06T11:16:25.302Z,68.58
2023-02-06T11:18:54.793Z,69.28
2023-02-06T11:21:50.616Z,69.43
2023-02-06T11:24:26.843Z,67.81
2023-02-06T11:26:58.596Z,67.00
2023-02-06T11:29:37.316Z,67.54
2023-02-06T11:32:08.433Z,66.40
2023-02-06T11:34:51.855Z,65.85
2023-02-06T11:37:32.905Z,67.04
2023-02-06T11:40:23.889Z,66.24
2023-02-06T11:42:53.973Z,66.28
2023-02-06T11:45:26.790Z,67.00
2023-02-06T11:47:54.896Z,66.60
2023-02-06T11:50:26.127Z,66.05
2023-02-06T11:53:00.338Z,66.83
2023-02-06T11:55:31.238Z,66.12
2023-02-06T11:58:05.890Z,64.84
2023-02-06T12:00:35.855Z,63.90
2023-02-06T12:03:12.104Z,64.36
2023-02-06T12:05:42.925Z,65.92
2023-02-06T12:08:15.227Z,66.23
2023-02-06T12:10:54.172Z,66.40
2023-02-06T12:13:27.877Z,65.70
2023-02-06T12:15:58.623Z,64.78
2023-02-06T12:18:28.738Z,65.64
2023-02-06T12:21:09.538Z,64.46
2023-02-06T12:23:42.118Z,64.41
2023-02-06T12:26:14.942Z,64.86
2023-02-06T12:28:59.546Z,64.85
2023-02-06T12:31:37.323Z,65.80
2023-02-06T12:34:13.413Z,64.50
2023-02-06T12:36:54.316Z,64.29
2023-02-06T12:39:23.848Z,64.63
2023-02-06T12:42:10.676Z,63.94
2023-02-06T12:44:41.674Z,64.54
2023-02-06T12:47:18.409Z,64.33
2023-02-06T12:49:58.712Z,63.08
2023-02-06T12:52:31.066Z,63.30
2023-02-06T12:55:09.451Z,63.66
2023-02-06T12:57:39.319Z,64.02
2023-02-06T13:00:57.446Z,64.06
2023-02-06T13:03:30.740Z,63.80
2023-02-06T13:06:04.144Z,62.98
2023-02-06T13:08:40.719Z,62.83
2023-02-06T13:11:14.930Z,62.48
2023-02-06T13:13:44.267Z,62.05
2023-02-06T13:16:13.081Z,62.69
2023-02-06T13:19:02.682Z,63.04
2023-02-06T13:21:32.318Z,61.22
2023-02-06T13:24:18.348Z,61.35
2023-02-06T13:27:14.244Z,61.73
2023-02-06T13:29:47.942Z,61.23
2023-02-06T13:32:31.682Z,60.86
2023-02-06T13:35:14.688Z,60.43
2023-02-06T13:37:45.872Z,60.79
2023-02-06T13:40:32.105Z,61.32
2023-02-06T13:43:03.933Z,60.37
2023-02-06T13:45:38.390Z,60.73
2023-02-06T13:48:49.206Z,60.45
2023-02-06T13:51:50.165Z,59.88
2023-02-06T13:54:37.782Z,59.97
2023-02-06T13:57:29.229Z,59.73
2023-02-06T14:00:02.729Z,60.79
2023-02-06T14:02:38.749Z,60.33
2023-02-06T14:05:11.629Z,59.35
2023-02-06T14:07:54.197Z,60.79
2023-02-06T14:10:42.429Z,59.61
2023-02-06T14:13:23.207Z,58.63
2023-02-06T14:15:58.781Z,58.00
2023-02-06T14:18:41.370Z,58.33
2023-02-06T14:21:22.681Z,59.55
2023-02-06T14:24:18.971Z,57.21
2023-02-06T14:26:59.344Z,57.61
2023-02-06T14:29:36.736Z,57.17
2023-02-06T14:32:23.328Z,56.36
2023-02-06T14:35:10.671Z,56.41
2023-02-06T14:38:00.184Z,56.57
2023-02-06T14:40:31.099Z,55.98
2023-02-06T14:43:03.006Z,56.58
2023-02-06T14:45:41.726Z,55.62
2023-02-06T14:48:20.524Z,56.35
2023-02-06T14:50:56.446Z,56.44
2023-02-06T14:53:28.280Z,56.65
2023-02-06T14:56:07.814Z,56.69
2023-02-06T14:58:36.011Z,56.82
2023-02-06T15:01:22.985Z,56.39
2023-02-06T15:03:52.839Z,56.20
2023-02-06T15:06:35.436Z,56.76
2023-02-06T15:09:03.686Z,56.02
2023-02-06T15:11:33.179Z,56.07
2023-02-06T15:14:05.538Z,56.69
2023-02-06T15:16:55.364Z,56.28
2023-02-06T15:19:26.241Z,55.66
2023-02-06T15:22:00.637Z,55.26
2023-02-06T15:24:48.211Z,55.44
2023-02-06T15:27:27.482Z,56.09
2023-02-06T15:29:58.645Z,56.23
2023-02-06T15:32:31.949Z,57.26
2023-02-06T15:35:00.915Z,57.82
2023-02-06T15:37:35.434Z,57.65
2023-02-06T15:40:09.577Z,57.89
2023-02-06T15:42:37.795Z,58.88
2023-02-06T15:45:15.528Z,57.89
2023-02-06T15:47:46.012Z,58.60
2023-02-06T15:50:18.454Z,59.42
2023-02-06T15:52:48.157Z,59.25
2023-02-06T15:55:28.072Z,59.08
2023-02-06T15:57:57.401Z,58.89
2023-02-06T16:00:28.228Z,59.83
2023-02-06T16:03:02.809Z,59.82
2023-02-06T16:05:34.226Z,60.63
2023-02-06T16:08:06.257Z,61.01
2023-02-06T16:10:38.673Z,60.55
2023-02-06T16:13:11.066Z,60.55
2023-02-06T16:15:41.018Z,60.67
2023-02-06T16:18:26.576Z,60.94
2023-02-06T16:21:15.004Z,61.23
2023-02-06T16:23:48.823Z,61.07
2023-02-06T16:26:21.350Z,61.41
2023-02-06T16:28:56.073Z,61.41
2023-02-06T16:31:26.856Z,61.40
2023-02-06T16:33:56.405Z,61.80
2023-02-06T16:36:24.917Z,61.73
2023-02-06T16:39:03.651Z,62.09
2023-02-06T16:41:36.016Z,61.89
2023-02-06T16:44:05.735Z,62.53
2023-02-06T16:46:34.932Z,62.50
2023-02-06T16:49:20.146Z,62.56
2023-02-06T16:51:54.460Z,62.47
2023-02-06T16:54:25.836Z,62.52
2023-02-06T16:56:56.516Z,63.13
2023-02-06T16:59:24.370Z,62.97
2023-02-06T17:01:52.090Z,63.00
2023-02-06T17:04:21.804Z,63.07
2023-02-06T17:06:53.365Z,63.14
2023-02-06T17:09:22.657Z,63.96
2023-02-06T17:11:51.380Z,64.73
2023-02-06T17:14:19.903Z,65.12
2023-02-06T17:16:48.792Z,65.06
2023-02-06T17:19:16.815Z,65.42
2023-02-06T17:21:44.371Z,65.53
2023-02-06T17:24:11.921Z,65.23
2023-02-06T17:26:42.337Z,65.99
2023-02-06T17:29:12.304Z,66.27
2023-02-06T17:31:42.710Z,66.15
2023-02-06T17:34:10.335Z,66.55
2023-02-06T17:36:39.669Z,66.42
2023-02-06T17:39:07.699Z,66.12
2023-02-06T17:41:36.254Z,66.16
2023-02-06T17:44:05.768Z,65.16
2023-02-06T17:46:33.494Z,64.94
2023-02-06T17:49:01.193Z,65.08
2023-02-06T17:51:28.954Z,65.00
2023-02-06T17:53:57.071Z,65.25
2023-02-06T17:56:24.882Z,65.60
2023-02-06T17:58:53.904Z,65.10
2023-02-06T18:01:24.501Z,65.35
2023-02-06T18:03:52.990Z,65.55
2023-02-06T18:06:21.776Z,66.04
2023-02-06T18:08:49.971Z,65.91
2023-02-06T18:11:19.549Z,65.77
2023-02-06T18:13:49.863Z,66.23
2023-02-06T18:16:20.153Z,65.88
2023-02-06T18:18:49.606Z,66.60
2023-02-06T18:21:19.228Z,66.79
2023-02-06T18:23:48.545Z,66.84
2023-02-06T18:26:18.925Z,66.97
2023-02-06T18:28:48.435Z,67.59
2023-02-06T18:31:22.853Z,67.23
2023-02-06T18:33:52.406Z,67.76
2023-02-06T18:36:20.220Z,68.78
2023-02-06T18:38:47.968Z,68.91
2023-02-06T18:41:29.821Z,67.96
2023-02-06T18:44:00.252Z,68.43
2023-02-06T18:46:28.592Z,68.13
2023-02-06T18:48:57.963Z,68.73
2023-02-06T18:51:26.244Z,69.06
2023-02-06T18:53:54.178Z,69.26
2023-02-06T18:56:22.436Z,69.91
2023-02-06T18:58:50.306Z,69.97
2023-02-06T19:01:21.175Z,69.85
2023-02-06T19:03:49.382Z,70.66
2023-02-06T19:06:20.955Z,70.85
2023-02-06T19:08:49.017Z,71.20
2023-02-06T19:11:17.340Z,71.51
2023-02-06T19:13:45.224Z,72.17
2023-02-06T19:16:14.898Z,72.20
2023-02-06T19:18:45.623Z,73.23
2023-02-06T19:21:16.615Z,73.72
2023-02-06T19:23:46.866Z,74.78
2023-02-06T19:26:17.664Z,74.73
2023-02-06T19:28:45.773Z,74.90
2023-02-06T19:31:15.551Z,74.98
2023-02-06T19:33:43.157Z,76.21
2023-02-06T19:36:12.949Z,76.28
2023-02-06T19:38:41.397Z,77.27
2023-02-06T19:41:12.206Z,76.98
2023-02-06T19:43:40.293Z,76.44
2023-02-06T19:46:12.239Z,77.01
2023-02-06T19:48:41.992Z,77.89
2023-02-06T19:51:14.780Z,78.71
2023-02-06T19:53:45.634Z,78.64
2023-02-06T19:56:22.815Z,78.05
2023-02-06T19:58:54.855Z,77.78
2023-02-06T20:01:24.658Z,77.89
2023-02-06T20:03:53.070Z,78.64
2023-02-06T20:06:23.044Z,78.35
2023-02-06T20:08:50.810Z,77.74
2023-02-06T20:11:22.236Z,77.89
2023-02-06T20:13:53.854Z,77.14
2023-02-06T20:16:26.957Z,77.24
2023-02-06T20:18:55.900Z,77.70
2023-02-06T20:21:26.761Z,78.62
2023-02-06T20:23:55.348Z,77.98
2023-02-06T20:26:27.743Z,77.48
2023-02-06T20:28:56.323Z,77.69
2023-02-06T20:31:24.241Z,78.41
2023-02-06T20:33:52.554Z,77.18
2023-02-06T20:36:22.786Z,77.10
2023-02-06T20:38:52.095Z,76.38
2023-02-06T20:41:20.397Z,76.30
2023-02-06T20:43:49.619Z,77.16
2023-02-06T20:46:17.513Z,77.14
2023-02-06T20:48:46.421Z,75.94
2023-02-06T20:51:15.333Z,74.47
2023-02-06T20:53:43.355Z,74.42
2023-02-06T20:56:14.553Z,75.06
2023-02-06T20:58:42.935Z,75.59
2023-02-06T21:01:17.685Z,76.68
2023-02-06T21:03:47.487Z,77.16
2023-02-06T21:06:16.400Z,77.30
2023-02-06T21:08:46.708Z,77.34
2023-02-06T21:11:14.901Z,78.36
2023-02-06T21:13:43.311Z,79.19
2023-02-06T21:16:13.540Z,78.89
2023-02-06T21:18:45.305Z,77.74
2023-02-06T21:21:15.903Z,78.09
2023-02-06T21:23:44.349Z,77.73
2023-02-06T21:26:13.672Z,77.74
2023-02-06T21:28:42.147Z,77.86
2023-02-06T21:31:13.890Z,76.61
2023-02-06T21:33:44.447Z,76.64
2023-02-06T21:36:12.116Z,76.21
2023-02-06T21:38:40.899Z,75.94
2023-02-06T21:41:10.702Z,75.99
2023-02-06T21:43:38.503Z,75.17
2023-02-06T21:46:06.633Z,74.47
2023-02-06T21:48:35.156Z,74.55
2023-02-06T21:51:09.483Z,74.38
2023-02-06T21:53:37.172Z,75.50
2023-02-06T21:56:07.119Z,75.41
2023-02-06T21:58:36.423Z,75.39
2023-02-06T22:01:08.784Z,75.27
2023-02-06T22:03:36.939Z,74.64
2023-02-06T22:06:08.557Z,75.51
2023-02-06T22:08:38.390Z,74.68
2023-02-06T22:11:13.577Z,75.10
2023-02-06T22:13:42.813Z,74.53
2023-02-06T22:16:12.495Z,74.15
2023-02-06T22:18:41.258Z,74.54
2023-02-06T22:21:11.237Z,74.07
2023-02-06T22:23:40.877Z,74.82
2023-02-06T22:26:09.746Z,75.48
2023-02-06T22:28:40.398Z,75.95
2023-02-06T22:31:09.516Z,75.47
2023-02-06T22:33:37.597Z,75.50
2023-02-06T22:36:06.789Z,76.13
2023-02-06T22:38:36.112Z,76.14
2023-02-06T22:41:09.506Z,76.52
2023-02-06T22:43:38.603Z,76.62
2023-02-06T22:46:07.547Z,76.27
2023-02-06T22:48:35.952Z,75.73
2023-02-06T22:51:06.062Z,76.23
2023-02-06T22:53:34.576Z,76.33
2023-02-06T22:56:23.555Z,76.37
2023-02-06T22:58:52.258Z,75.46
2023-02-06T23:01:23.995Z,75.29
2023-02-06T23:03:52.116Z,75.24
2023-02-06T23:06:19.937Z,75.08
2023-02-06T23:08:47.949Z,74.81
2023-02-06T23:11:17.528Z,75.38
2023-02-06T23:13:46.163Z,75.43
2023-02-06T23:16:13.771Z,75.80
2023-02-06T23:18:41.374Z,75.01
2023-02-06T23:21:12.051Z,73.75
2023-02-06T23:23:40.723Z,73.97
2023-02-06T23:26:10.377Z,74.88
2023-02-06T23:28:39.828Z,74.69
2023-02-06T23:31:09.266Z,74.38
2023-02-06T23:33:37.764Z,74.43
2023-02-06T23:36:07.557Z,75.30
2023-02-06T23:38:35.311Z,74.71
2023-02-06T23:41:10.408Z,75.28
2023-02-06T23:43:39.689Z,76.43
2023-02-06T23:46:11.724Z,76.39
2023-02-06T23:48:40.494Z,76.87
2023-02-06T23:51:08.611Z,77.15
2023-02-06T23:53:36.326Z,76.79
2023-02-06T23:56:11.314Z,78.00
2023-02-06T23:58:43.312Z,78.66
